sensor_id;sensor_type;location;lat;lon;timestamp;temperature;humidity
84397;DHT22;74595;48.846;2.358;2024-03-23T00:54:32;15.00;72.00
84397;DHT22;74595;48.846;2.358;2024-03-23T00:56:57;15.10;71.80
84397;DHT22;74595;48.846;2.358;2024-03-23T00:59:23;15.10;71.60
84397;DHT22;74595;48.846;2.358;2024-03-23T01:01:52;15.20;71.30
84397;DHT22;74595;48.846;2.358;2024-03-23T01:04:18;15.20;70.90
84397;DHT22;74595;48.846;2.358;2024-03-23T01:06:44;15.20;71.30
84397;DHT22;74595;48.846;2.358;2024-03-23T01:09:09;15.20;70.60
84397;DHT22;74595;48.846;2.358;2024-03-23T01:11:36;15.30;70.80
84397;DHT22;74595;48.846;2.358;2024-03-23T01:14:03;15.30;70.60
84397;DHT22;74595;48.846;2.358;2024-03-23T01:16:28;15.30;70.50
84397;DHT22;74595;48.846;2.358;2024-03-23T01:18:54;15.30;70.60
84397;DHT22;74595;48.846;2.358;2024-03-23T01:21:20;15.20;70.60
84397;DHT22;74595;48.846;2.358;2024-03-23T01:23:45;15.30;70.20
84397;DHT22;74595;48.846;2.358;2024-03-23T01:26:11;15.20;70.50
84397;DHT22;74595;48.846;2.358;2024-03-23T01:28:37;15.30;70.10
84397;DHT22;74595;48.846;2.358;2024-03-23T01:31:02;15.40;69.70
84397;DHT22;74595;48.846;2.358;2024-03-23T01:33:28;15.30;69.80
84397;DHT22;74595;48.846;2.358;2024-03-23T01:35:54;15.30;69.80
84397;DHT22;74595;48.846;2.358;2024-03-23T01:38:19;15.40;69.50
84397;DHT22;74595;48.846;2.358;2024-03-23T01:40:45;15.30;69.80
84397;DHT22;74595;48.846;2.358;2024-03-23T01:43:11;15.40;69.30
84397;DHT22;74595;48.846;2.358;2024-03-23T01:45:37;15.40;69.10
84397;DHT22;74595;48.846;2.358;2024-03-23T01:48:03;15.40;68.70
84397;DHT22;74595;48.846;2.358;2024-03-23T01:50:31;15.40;69.10
84397;DHT22;74595;48.846;2.358;2024-03-23T01:53:02;15.30;68.70
84397;DHT22;74595;48.846;2.358;2024-03-23T01:55:28;15.20;69.00
84397;DHT22;74595;48.846;2.358;2024-03-23T01:57:56;15.10;69.40
84397;DHT22;74595;48.846;2.358;2024-03-23T02:00:22;15.10;70.10
84397;DHT22;74595;48.846;2.358;2024-03-23T02:02:48;15.10;69.80
84397;DHT22;74595;48.846;2.358;2024-03-23T02:05:14;14.90;70.60
84397;DHT22;74595;48.846;2.358;2024-03-23T02:07:41;15.00;70.30
84397;DHT22;74595;48.846;2.358;2024-03-23T02:10:09;15.00;70.00
84397;DHT22;74595;48.846;2.358;2024-03-23T02:12:40;15.00;70.20
84397;DHT22;74595;48.846;2.358;2024-03-23T02:15:06;14.60;72.50
84397;DHT22;74595;48.846;2.358;2024-03-23T02:17:35;14.70;72.00
84397;DHT22;74595;48.846;2.358;2024-03-23T02:20:02;14.80;71.40
84397;DHT22;74595;48.846;2.358;2024-03-23T02:22:38;14.90;70.60
84397;DHT22;74595;48.846;2.358;2024-03-23T02:25:07;14.90;71.30
84397;DHT22;74595;48.846;2.358;2024-03-23T02:27:33;14.90;71.40
84397;DHT22;74595;48.846;2.358;2024-03-23T02:30:00;14.80;71.30
84397;DHT22;74595;48.846;2.358;2024-03-23T02:32:25;14.90;70.70
84397;DHT22;74595;48.846;2.358;2024-03-23T02:34:51;14.90;70.80
84397;DHT22;74595;48.846;2.358;2024-03-23T02:37:17;15.00;70.40
84397;DHT22;74595;48.846;2.358;2024-03-23T02:39:42;15.00;70.50
84397;DHT22;74595;48.846;2.358;2024-03-23T02:42:08;14.90;70.90
84397;DHT22;74595;48.846;2.358;2024-03-23T02:44:33;15.00;70.40
84397;DHT22;74595;48.846;2.358;2024-03-23T02:46:59;14.90;71.20
84397;DHT22;74595;48.846;2.358;2024-03-23T02:49:26;14.30;74.00
84397;DHT22;74595;48.846;2.358;2024-03-23T02:51:52;14.40;73.60
84397;DHT22;74595;48.846;2.358;2024-03-23T02:54:17;14.50;73.90
84397;DHT22;74595;48.846;2.358;2024-03-23T02:56:43;14.70;72.10
84397;DHT22;74595;48.846;2.358;2024-03-23T02:59:09;14.70;72.00
84397;DHT22;74595;48.846;2.358;2024-03-23T03:01:34;14.80;71.70
84397;DHT22;74595;48.846;2.358;2024-03-23T03:04:00;14.80;71.30
84397;DHT22;74595;48.846;2.358;2024-03-23T03:06:26;14.80;71.80
84397;DHT22;74595;48.846;2.358;2024-03-23T03:08:52;14.90;71.30
84397;DHT22;74595;48.846;2.358;2024-03-23T03:11:18;14.80;71.40
84397;DHT22;74595;48.846;2.358;2024-03-23T03:13:43;14.80;70.60
84397;DHT22;74595;48.846;2.358;2024-03-23T03:16:12;14.80;70.70
84397;DHT22;74595;48.846;2.358;2024-03-23T03:18:38;14.90;70.90
84397;DHT22;74595;48.846;2.358;2024-03-23T03:21:05;14.90;70.90
84397;DHT22;74595;48.846;2.358;2024-03-23T03:23:34;14.90;70.70
84397;DHT22;74595;48.846;2.358;2024-03-23T03:25:59;14.90;70.50
84397;DHT22;74595;48.846;2.358;2024-03-23T03:28:25;14.90;70.60
84397;DHT22;74595;48.846;2.358;2024-03-23T03:30:51;14.90;70.50
84397;DHT22;74595;48.846;2.358;2024-03-23T03:33:17;14.90;70.80
84397;DHT22;74595;48.846;2.358;2024-03-23T03:35:42;14.80;70.80
84397;DHT22;74595;48.846;2.358;2024-03-23T03:38:08;14.90;70.70
84397;DHT22;74595;48.846;2.358;2024-03-23T03:40:35;14.90;70.90
84397;DHT22;74595;48.846;2.358;2024-03-23T03:43:01;14.90;70.50
84397;DHT22;74595;48.846;2.358;2024-03-23T03:45:26;14.90;70.40
84397;DHT22;74595;48.846;2.358;2024-03-23T03:47:52;14.90;70.70
84397;DHT22;74595;48.846;2.358;2024-03-23T03:50:18;14.80;71.50
84397;DHT22;74595;48.846;2.358;2024-03-23T03:52:43;14.80;70.50
84397;DHT22;74595;48.846;2.358;2024-03-23T03:55:16;14.90;70.40
84397;DHT22;74595;48.846;2.358;2024-03-23T03:57:42;14.90;70.30
84397;DHT22;74595;48.846;2.358;2024-03-23T04:00:08;14.80;70.60
84397;DHT22;74595;48.846;2.358;2024-03-23T04:02:39;14.60;71.20
84397;DHT22;74595;48.846;2.358;2024-03-23T04:05:06;14.40;72.70
84397;DHT22;74595;48.846;2.358;2024-03-23T04:07:32;14.50;72.00
84397;DHT22;74595;48.846;2.358;2024-03-23T04:09:58;14.50;72.00
84397;DHT22;74595;48.846;2.358;2024-03-23T04:12:24;14.60;72.30
84397;DHT22;74595;48.846;2.358;2024-03-23T04:14:50;14.60;71.20
84397;DHT22;74595;48.846;2.358;2024-03-23T04:17:15;14.60;71.80
84397;DHT22;74595;48.846;2.358;2024-03-23T04:19:41;14.60;71.90
84397;DHT22;74595;48.846;2.358;2024-03-23T04:22:07;14.70;71.50
84397;DHT22;74595;48.846;2.358;2024-03-23T04:24:33;14.70;71.30
84397;DHT22;74595;48.846;2.358;2024-03-23T04:26:59;14.60;71.10
84397;DHT22;74595;48.846;2.358;2024-03-23T04:29:24;14.60;71.70
84397;DHT22;74595;48.846;2.358;2024-03-23T04:31:52;14.50;72.30
84397;DHT22;74595;48.846;2.358;2024-03-23T04:34:17;14.60;72.00
84397;DHT22;74595;48.846;2.358;2024-03-23T04:36:43;14.60;71.70
84397;DHT22;74595;48.846;2.358;2024-03-23T04:39:09;14.60;71.70
84397;DHT22;74595;48.846;2.358;2024-03-23T04:41:35;14.60;71.00
84397;DHT22;74595;48.846;2.358;2024-03-23T04:44:01;14.50;71.60
84397;DHT22;74595;48.846;2.358;2024-03-23T04:46:27;14.50;71.30
84397;DHT22;74595;48.846;2.358;2024-03-23T04:48:52;14.50;71.90
84397;DHT22;74595;48.846;2.358;2024-03-23T04:51:22;14.50;71.40
84397;DHT22;74595;48.846;2.358;2024-03-23T04:53:48;14.50;71.60
84397;DHT22;74595;48.846;2.358;2024-03-23T04:56:15;14.40;71.90
84397;DHT22;74595;48.846;2.358;2024-03-23T04:58:40;14.40;71.80
84397;DHT22;74595;48.846;2.358;2024-03-23T05:01:06;14.50;72.00
84397;DHT22;74595;48.846;2.358;2024-03-23T05:03:32;14.50;72.00
84397;DHT22;74595;48.846;2.358;2024-03-23T05:05:57;14.50;72.10
84397;DHT22;74595;48.846;2.358;2024-03-23T05:08:24;14.50;72.40
84397;DHT22;74595;48.846;2.358;2024-03-23T05:10:49;14.50;71.80
84397;DHT22;74595;48.846;2.358;2024-03-23T05:13:15;14.60;71.60
84397;DHT22;74595;48.846;2.358;2024-03-23T05:15:41;14.60;71.60
84397;DHT22;74595;48.846;2.358;2024-03-23T05:18:07;14.50;72.30
84397;DHT22;74595;48.846;2.358;2024-03-23T05:20:32;14.50;72.50
84397;DHT22;74595;48.846;2.358;2024-03-23T05:22:58;14.50;72.80
84397;DHT22;74595;48.846;2.358;2024-03-23T05:25:24;14.60;72.30
84397;DHT22;74595;48.846;2.358;2024-03-23T05:27:49;14.60;72.10
84397;DHT22;74595;48.846;2.358;2024-03-23T05:30:15;14.50;71.50
84397;DHT22;74595;48.846;2.358;2024-03-23T05:32:41;14.60;71.60
84397;DHT22;74595;48.846;2.358;2024-03-23T05:35:09;14.60;71.80
84397;DHT22;74595;48.846;2.358;2024-03-23T05:37:35;14.30;73.50
84397;DHT22;74595;48.846;2.358;2024-03-23T05:40:01;13.90;75.90
84397;DHT22;74595;48.846;2.358;2024-03-23T05:42:29;14.10;74.80
84397;DHT22;74595;48.846;2.358;2024-03-23T05:44:54;14.10;74.40
84397;DHT22;74595;48.846;2.358;2024-03-23T05:47:20;14.10;75.00
84397;DHT22;74595;48.846;2.358;2024-03-23T05:49:46;14.10;74.00
84397;DHT22;74595;48.846;2.358;2024-03-23T05:52:12;14.00;74.10
84397;DHT22;74595;48.846;2.358;2024-03-23T05:54:38;14.00;74.30
84397;DHT22;74595;48.846;2.358;2024-03-23T05:57:04;14.10;74.00
84397;DHT22;74595;48.846;2.358;2024-03-23T05:59:30;14.20;73.10
84397;DHT22;74595;48.846;2.358;2024-03-23T06:01:56;14.20;73.30
84397;DHT22;74595;48.846;2.358;2024-03-23T06:04:22;14.20;72.20
84397;DHT22;74595;48.846;2.358;2024-03-23T06:06:48;14.10;72.90
84397;DHT22;74595;48.846;2.358;2024-03-23T06:09:13;14.10;72.80
84397;DHT22;74595;48.846;2.358;2024-03-23T06:11:39;14.10;72.90
84397;DHT22;74595;48.846;2.358;2024-03-23T06:14:05;14.10;73.30
84397;DHT22;74595;48.846;2.358;2024-03-23T06:16:31;14.10;73.20
84397;DHT22;74595;48.846;2.358;2024-03-23T06:18:57;14.00;73.60
84397;DHT22;74595;48.846;2.358;2024-03-23T06:21:24;13.90;73.50
84397;DHT22;74595;48.846;2.358;2024-03-23T06:23:52;14.00;73.30
84397;DHT22;74595;48.846;2.358;2024-03-23T06:26:18;14.10;71.70
84397;DHT22;74595;48.846;2.358;2024-03-23T06:28:44;13.70;74.90
84397;DHT22;74595;48.846;2.358;2024-03-23T06:31:10;13.60;74.40
84397;DHT22;74595;48.846;2.358;2024-03-23T06:33:36;13.50;70.50
84397;DHT22;74595;48.846;2.358;2024-03-23T06:36:01;13.20;74.50
84397;DHT22;74595;48.846;2.358;2024-03-23T06:38:28;13.20;77.10
84397;DHT22;74595;48.846;2.358;2024-03-23T06:40:54;13.10;78.00
84397;DHT22;74595;48.846;2.358;2024-03-23T06:43:19;12.70;79.80
84397;DHT22;74595;48.846;2.358;2024-03-23T06:45:55;13.20;78.40
84397;DHT22;74595;48.846;2.358;2024-03-23T06:48:21;13.60;76.80
84397;DHT22;74595;48.846;2.358;2024-03-23T06:50:47;14.00;74.40
84397;DHT22;74595;48.846;2.358;2024-03-23T06:53:13;14.20;73.10
84397;DHT22;74595;48.846;2.358;2024-03-23T06:55:39;14.40;71.70
84397;DHT22;74595;48.846;2.358;2024-03-23T06:58:05;14.50;68.20
84397;DHT22;74595;48.846;2.358;2024-03-23T07:00:31;14.40;68.60
84397;DHT22;74595;48.846;2.358;2024-03-23T07:02:57;14.50;64.20
84397;DHT22;74595;48.846;2.358;2024-03-23T07:05:23;14.80;63.30
84397;DHT22;74595;48.846;2.358;2024-03-23T07:07:49;14.80;62.20
84397;DHT22;74595;48.846;2.358;2024-03-23T07:10:14;14.70;57.90
84397;DHT22;74595;48.846;2.358;2024-03-23T07:12:40;14.80;57.20
84397;DHT22;74595;48.846;2.358;2024-03-23T07:15:07;15.20;57.70
84397;DHT22;74595;48.846;2.358;2024-03-23T07:17:33;15.30;52.40
84397;DHT22;74595;48.846;2.358;2024-03-23T07:20:01;15.40;49.60
84397;DHT22;74595;48.846;2.358;2024-03-23T07:22:32;15.70;52.30
84397;DHT22;74595;48.846;2.358;2024-03-23T07:25:01;15.90;50.20
84397;DHT22;74595;48.846;2.358;2024-03-23T07:27:27;16.00;47.50
84397;DHT22;74595;48.846;2.358;2024-03-23T07:29:53;16.20;49.30
84397;DHT22;74595;48.846;2.358;2024-03-23T07:32:18;16.00;47.40
84397;DHT22;74595;48.846;2.358;2024-03-23T07:34:44;16.40;50.00
84397;DHT22;74595;48.846;2.358;2024-03-23T07:37:10;16.50;49.70
84397;DHT22;74595;48.846;2.358;2024-03-23T07:39:36;16.40;49.70
84397;DHT22;74595;48.846;2.358;2024-03-23T07:42:02;16.50;50.10
84397;DHT22;74595;48.846;2.358;2024-03-23T07:44:28;16.50;49.60
84397;DHT22;74595;48.846;2.358;2024-03-23T07:46:53;16.50;47.30
84397;DHT22;74595;48.846;2.358;2024-03-23T07:49:19;16.60;46.50
84397;DHT22;74595;48.846;2.358;2024-03-23T07:51:45;16.50;43.20
84397;DHT22;74595;48.846;2.358;2024-03-23T07:54:11;16.80;39.30
84397;DHT22;74595;48.846;2.358;2024-03-23T07:56:36;16.60;39.20
84397;DHT22;74595;48.846;2.358;2024-03-23T07:59:02;16.80;39.40
84397;DHT22;74595;48.846;2.358;2024-03-23T08:01:28;16.80;39.50
84397;DHT22;74595;48.846;2.358;2024-03-23T08:03:54;17.00;39.20
84397;DHT22;74595;48.846;2.358;2024-03-23T08:06:20;16.90;39.70
84397;DHT22;74595;48.846;2.358;2024-03-23T08:08:50;16.80;47.60
84397;DHT22;74595;48.846;2.358;2024-03-23T08:11:16;16.90;43.80
84397;DHT22;74595;48.846;2.358;2024-03-23T08:13:44;17.00;46.40
84397;DHT22;74595;48.846;2.358;2024-03-23T08:16:10;16.40;51.30
84397;DHT22;74595;48.846;2.358;2024-03-23T08:18:36;16.60;49.20
84397;DHT22;74595;48.846;2.358;2024-03-23T08:21:04;16.50;50.10
84397;DHT22;74595;48.846;2.358;2024-03-23T08:23:31;16.80;50.70
84397;DHT22;74595;48.846;2.358;2024-03-23T08:26:03;16.90;46.30
84397;DHT22;74595;48.846;2.358;2024-03-23T08:28:29;16.80;45.90
84397;DHT22;74595;48.846;2.358;2024-03-23T08:30:55;16.10;52.70
84397;DHT22;74595;48.846;2.358;2024-03-23T08:33:21;16.80;51.70
84397;DHT22;74595;48.846;2.358;2024-03-23T08:36:01;16.90;50.40
84397;DHT22;74595;48.846;2.358;2024-03-23T08:38:28;16.70;49.80
84397;DHT22;74595;48.846;2.358;2024-03-23T08:43:26;16.60;56.00
84397;DHT22;74595;48.846;2.358;2024-03-23T08:45:52;16.60;57.00
84397;DHT22;74595;48.846;2.358;2024-03-23T08:48:21;16.80;54.20
84397;DHT22;74595;48.846;2.358;2024-03-23T08:50:47;16.90;51.30
84397;DHT22;74595;48.846;2.358;2024-03-23T08:53:23;17.30;41.60
84397;DHT22;74595;48.846;2.358;2024-03-23T08:55:56;17.40;44.10
84397;DHT22;74595;48.846;2.358;2024-03-23T08:58:23;17.70;39.50
84397;DHT22;74595;48.846;2.358;2024-03-23T09:00:50;17.50;36.90
84397;DHT22;74595;48.846;2.358;2024-03-23T09:03:19;17.70;30.80
84397;DHT22;74595;48.846;2.358;2024-03-23T09:05:44;18.00;29.20
84397;DHT22;74595;48.846;2.358;2024-03-23T09:08:10;18.50;29.90
84397;DHT22;74595;48.846;2.358;2024-03-23T09:10:42;18.50;27.50
84397;DHT22;74595;48.846;2.358;2024-03-23T09:13:08;18.90;28.00
84397;DHT22;74595;48.846;2.358;2024-03-23T09:15:35;19.10;27.20
84397;DHT22;74595;48.846;2.358;2024-03-23T09:18:01;19.50;26.90
84397;DHT22;74595;48.846;2.358;2024-03-23T09:20:26;19.70;26.40
84397;DHT22;74595;48.846;2.358;2024-03-23T09:22:52;20.20;25.30
84397;DHT22;74595;48.846;2.358;2024-03-23T09:25:18;20.40;25.80
84397;DHT22;74595;48.846;2.358;2024-03-23T09:27:46;20.60;24.40
84397;DHT22;74595;48.846;2.358;2024-03-23T09:30:12;20.90;23.60
84397;DHT22;74595;48.846;2.358;2024-03-23T09:32:38;21.50;23.30
84397;DHT22;74595;48.846;2.358;2024-03-23T09:35:04;21.60;22.00
84397;DHT22;74595;48.846;2.358;2024-03-23T09:37:30;21.80;21.70
84397;DHT22;74595;48.846;2.358;2024-03-23T09:39:55;22.10;20.60
84397;DHT22;74595;48.846;2.358;2024-03-23T09:42:21;22.20;20.70
84397;DHT22;74595;48.846;2.358;2024-03-23T09:44:48;22.30;20.10
84397;DHT22;74595;48.846;2.358;2024-03-23T09:47:16;22.60;19.90
84397;DHT22;74595;48.846;2.358;2024-03-23T09:49:42;22.80;19.50
84397;DHT22;74595;48.846;2.358;2024-03-23T09:52:07;22.30;19.30
84397;DHT22;74595;48.846;2.358;2024-03-23T09:54:33;23.30;20.30
84397;DHT22;74595;48.846;2.358;2024-03-23T09:56:59;23.30;18.30
84397;DHT22;74595;48.846;2.358;2024-03-23T09:59:24;23.60;18.10
84397;DHT22;74595;48.846;2.358;2024-03-23T10:01:53;23.30;18.40
84397;DHT22;74595;48.846;2.358;2024-03-23T10:04:37;23.30;18.10
84397;DHT22;74595;48.846;2.358;2024-03-23T10:07:14;24.60;17.60
84397;DHT22;74595;48.846;2.358;2024-03-23T10:09:40;24.70;14.60
84397;DHT22;74595;48.846;2.358;2024-03-23T10:12:14;25.10;12.60
84397;DHT22;74595;48.846;2.358;2024-03-23T10:14:40;25.50;12.70
84397;DHT22;74595;48.846;2.358;2024-03-23T10:17:22;25.80;12.80
84397;DHT22;74595;48.846;2.358;2024-03-23T10:19:55;25.00;12.80
84397;DHT22;74595;48.846;2.358;2024-03-23T10:22:22;26.10;12.90
84397;DHT22;74595;48.846;2.358;2024-03-23T10:24:49;26.00;12.90
84397;DHT22;74595;48.846;2.358;2024-03-23T10:27:23;26.00;12.30
84397;DHT22;74595;48.846;2.358;2024-03-23T10:29:49;26.60;12.80
84397;DHT22;74595;48.846;2.358;2024-03-23T10:32:17;26.20;12.10
84397;DHT22;74595;48.846;2.358;2024-03-23T10:34:43;26.50;11.40
84397;DHT22;74595;48.846;2.358;2024-03-23T10:37:08;27.30;12.30
84397;DHT22;74595;48.846;2.358;2024-03-23T10:39:37;27.70;11.00
84397;DHT22;74595;48.846;2.358;2024-03-23T10:42:04;28.00;11.90
84397;DHT22;74595;48.846;2.358;2024-03-23T10:44:30;28.00;11.00
84397;DHT22;74595;48.846;2.358;2024-03-23T10:46:57;27.70;10.40
84397;DHT22;74595;48.846;2.358;2024-03-23T10:49:33;27.80;10.80
84397;DHT22;74595;48.846;2.358;2024-03-23T10:52:03;27.60;11.20
84397;DHT22;74595;48.846;2.358;2024-03-23T10:54:33;27.60;12.10
84397;DHT22;74595;48.846;2.358;2024-03-23T10:57:06;28.00;10.60
84397;DHT22;74595;48.846;2.358;2024-03-23T10:59:35;27.90;10.10
84397;DHT22;74595;48.846;2.358;2024-03-23T11:02:02;28.50;10.60
84397;DHT22;74595;48.846;2.358;2024-03-23T11:04:36;28.50;10.70
84397;DHT22;74595;48.846;2.358;2024-03-23T11:09:50;28.80;9.00
84397;DHT22;74595;48.846;2.358;2024-03-23T11:14:59;27.60;9.70
84397;DHT22;74595;48.846;2.358;2024-03-23T11:17:26;28.40;11.00
84397;DHT22;74595;48.846;2.358;2024-03-23T11:20:02;27.90;10.40
84397;DHT22;74595;48.846;2.358;2024-03-23T11:22:38;28.40;10.60
84397;DHT22;74595;48.846;2.358;2024-03-23T11:27:45;28.90;9.40
84397;DHT22;74595;48.846;2.358;2024-03-23T11:30:18;29.00;10.40
84397;DHT22;74595;48.846;2.358;2024-03-23T11:32:49;29.20;9.80
84397;DHT22;74595;48.846;2.358;2024-03-23T11:35:41;29.10;10.30
84397;DHT22;74595;48.846;2.358;2024-03-23T11:38:12;29.00;10.80
84397;DHT22;74595;48.846;2.358;2024-03-23T11:40:47;28.50;9.20
84397;DHT22;74595;48.846;2.358;2024-03-23T11:43:19;28.50;10.30
84397;DHT22;74595;48.846;2.358;2024-03-23T11:45:48;28.30;10.90
84397;DHT22;74595;48.846;2.358;2024-03-23T11:48:19;28.70;10.50
84397;DHT22;74595;48.846;2.358;2024-03-23T11:50:47;29.00;11.10
84397;DHT22;74595;48.846;2.358;2024-03-23T11:53:22;29.20;10.80
84397;DHT22;74595;48.846;2.358;2024-03-23T11:55:50;29.10;10.30
84397;DHT22;74595;48.846;2.358;2024-03-23T11:58:17;28.80;10.10
84397;DHT22;74595;48.846;2.358;2024-03-23T12:00:56;28.00;10.10
84397;DHT22;74595;48.846;2.358;2024-03-23T12:03:23;29.30;9.90
84397;DHT22;74595;48.846;2.358;2024-03-23T12:05:52;29.70;9.70
84397;DHT22;74595;48.846;2.358;2024-03-23T12:08:29;30.30;9.90
84397;DHT22;74595;48.846;2.358;2024-03-23T12:11:11;30.60;9.40
84397;DHT22;74595;48.846;2.358;2024-03-23T12:13:39;30.40;9.10
84397;DHT22;74595;48.846;2.358;2024-03-23T12:16:17;30.70;9.30
84397;DHT22;74595;48.846;2.358;2024-03-23T12:18:46;31.40;8.60
84397;DHT22;74595;48.846;2.358;2024-03-23T12:21:12;31.50;8.40
84397;DHT22;74595;48.846;2.358;2024-03-23T12:23:41;31.40;8.50
84397;DHT22;74595;48.846;2.358;2024-03-23T12:26:08;31.30;8.40
84397;DHT22;74595;48.846;2.358;2024-03-23T12:28:34;31.00;9.30
84397;DHT22;74595;48.846;2.358;2024-03-23T12:31:00;30.00;8.70
84397;DHT22;74595;48.846;2.358;2024-03-23T12:33:25;31.30;9.10
84397;DHT22;74595;48.846;2.358;2024-03-23T12:35:51;30.00;9.50
84397;DHT22;74595;48.846;2.358;2024-03-23T12:38:17;30.40;9.80
84397;DHT22;74595;48.846;2.358;2024-03-23T12:40:50;30.40;9.80
84397;DHT22;74595;48.846;2.358;2024-03-23T12:43:16;30.30;9.90
84397;DHT22;74595;48.846;2.358;2024-03-23T12:45:49;29.10;9.20
84397;DHT22;74595;48.846;2.358;2024-03-23T12:48:15;29.90;9.80
84397;DHT22;74595;48.846;2.358;2024-03-23T12:50:40;30.50;9.30
84397;DHT22;74595;48.846;2.358;2024-03-23T12:53:06;30.70;9.70
84397;DHT22;74595;48.846;2.358;2024-03-23T12:55:31;30.00;9.20
84397;DHT22;74595;48.846;2.358;2024-03-23T12:57:57;30.40;9.40
84397;DHT22;74595;48.846;2.358;2024-03-23T13:00:23;30.60;9.40
84397;DHT22;74595;48.846;2.358;2024-03-23T13:02:48;30.60;9.40
84397;DHT22;74595;48.846;2.358;2024-03-23T13:05:14;30.60;8.70
84397;DHT22;74595;48.846;2.358;2024-03-23T13:07:40;30.90;8.30
84397;DHT22;74595;48.846;2.358;2024-03-23T13:10:06;30.70;8.00
84397;DHT22;74595;48.846;2.358;2024-03-23T13:12:32;31.00;8.60
84397;DHT22;74595;48.846;2.358;2024-03-23T13:15:00;31.00;8.90
84397;DHT22;74595;48.846;2.358;2024-03-23T13:17:27;30.70;7.50
84397;DHT22;74595;48.846;2.358;2024-03-23T13:19:55;31.50;8.10
84397;DHT22;74595;48.846;2.358;2024-03-23T13:22:21;32.20;7.20
84397;DHT22;74595;48.846;2.358;2024-03-23T13:24:47;32.00;7.10
84397;DHT22;74595;48.846;2.358;2024-03-23T13:27:13;32.00;7.30
84397;DHT22;74595;48.846;2.358;2024-03-23T13:29:38;29.40;7.40
84397;DHT22;74595;48.846;2.358;2024-03-23T13:32:04;31.00;7.50
84397;DHT22;74595;48.846;2.358;2024-03-23T13:34:31;31.60;6.40
84397;DHT22;74595;48.846;2.358;2024-03-23T13:36:56;31.80;6.90
84397;DHT22;74595;48.846;2.358;2024-03-23T13:39:23;32.10;7.30
84397;DHT22;74595;48.846;2.358;2024-03-23T13:41:49;32.10;5.90
84397;DHT22;74595;48.846;2.358;2024-03-23T13:44:15;30.40;5.30
84397;DHT22;74595;48.846;2.358;2024-03-23T13:46:42;30.50;6.00
84397;DHT22;74595;48.846;2.358;2024-03-23T13:51:52;30.90;5.70
84397;DHT22;74595;48.846;2.358;2024-03-23T13:54:18;31.80;5.10
84397;DHT22;74595;48.846;2.358;2024-03-23T13:56:44;32.50;4.80
84397;DHT22;74595;48.846;2.358;2024-03-23T13:59:10;33.10;5.40
84397;DHT22;74595;48.846;2.358;2024-03-23T14:01:35;33.20;4.80
84397;DHT22;74595;48.846;2.358;2024-03-23T14:04:01;32.90;4.70
84397;DHT22;74595;48.846;2.358;2024-03-23T14:06:26;32.80;4.20
84397;DHT22;74595;48.846;2.358;2024-03-23T14:08:52;32.70;4.80
84397;DHT22;74595;48.846;2.358;2024-03-23T14:11:18;33.40;4.60
84397;DHT22;74595;48.846;2.358;2024-03-23T14:13:44;33.60;4.10
84397;DHT22;74595;48.846;2.358;2024-03-23T14:16:10;33.90;3.90
84397;DHT22;74595;48.846;2.358;2024-03-23T14:18:35;33.50;4.50
84397;DHT22;74595;48.846;2.358;2024-03-23T14:21:01;33.60;3.70
84397;DHT22;74595;48.846;2.358;2024-03-23T14:23:29;32.80;4.60
84397;DHT22;74595;48.846;2.358;2024-03-23T14:25:55;31.70;3.70
84397;DHT22;74595;48.846;2.358;2024-03-23T14:28:22;32.10;4.00
84397;DHT22;74595;48.846;2.358;2024-03-23T14:30:49;32.90;4.30
84397;DHT22;74595;48.846;2.358;2024-03-23T14:33:15;33.10;4.00
84397;DHT22;74595;48.846;2.358;2024-03-23T14:35:41;32.70;3.40
84397;DHT22;74595;48.846;2.358;2024-03-23T14:38:07;33.40;3.70
84397;DHT22;74595;48.846;2.358;2024-03-23T14:40:33;32.90;3.20
84397;DHT22;74595;48.846;2.358;2024-03-23T14:42:59;32.60;3.90
84397;DHT22;74595;48.846;2.358;2024-03-23T14:45:25;32.60;4.00
84397;DHT22;74595;48.846;2.358;2024-03-23T14:47:51;32.80;4.00
84397;DHT22;74595;48.846;2.358;2024-03-23T14:50:18;33.20;4.30
84397;DHT22;74595;48.846;2.358;2024-03-23T14:52:47;32.70;3.90
84397;DHT22;74595;48.846;2.358;2024-03-23T14:55:13;32.40;3.80
84397;DHT22;74595;48.846;2.358;2024-03-23T14:57:39;32.70;4.00
84397;DHT22;74595;48.846;2.358;2024-03-23T15:00:09;31.90;3.20
84397;DHT22;74595;48.846;2.358;2024-03-23T15:02:39;32.70;4.00
84397;DHT22;74595;48.846;2.358;2024-03-23T15:05:05;32.50;3.60
84397;DHT22;74595;48.846;2.358;2024-03-23T15:07:37;32.70;3.40
84397;DHT22;74595;48.846;2.358;2024-03-23T15:10:05;32.90;3.90
84397;DHT22;74595;48.846;2.358;2024-03-23T15:12:31;33.30;3.70
84397;DHT22;74595;48.846;2.358;2024-03-23T15:25:14;32.50;4.10
84397;DHT22;74595;48.846;2.358;2024-03-23T15:27:40;32.60;3.80
84397;DHT22;74595;48.846;2.358;2024-03-23T15:30:07;32.70;3.70
84397;DHT22;74595;48.846;2.358;2024-03-23T15:32:32;32.80;3.10
84397;DHT22;74595;48.846;2.358;2024-03-23T15:34:58;32.50;2.90
84397;DHT22;74595;48.846;2.358;2024-03-23T15:37:24;32.50;4.00
84397;DHT22;74595;48.846;2.358;2024-03-23T15:39:49;32.50;3.80
84397;DHT22;74595;48.846;2.358;2024-03-23T15:42:15;32.90;3.70
84397;DHT22;74595;48.846;2.358;2024-03-23T15:44:40;32.50;3.60
84397;DHT22;74595;48.846;2.358;2024-03-23T15:47:06;33.30;3.70
84397;DHT22;74595;48.846;2.358;2024-03-23T15:49:32;33.20;2.70
84397;DHT22;74595;48.846;2.358;2024-03-23T15:51:57;33.10;3.00
84397;DHT22;74595;48.846;2.358;2024-03-23T15:54:24;31.90;1.40
84397;DHT22;74595;48.846;2.358;2024-03-23T15:56:50;31.80;2.10
84397;DHT22;74595;48.846;2.358;2024-03-23T15:59:16;31.40;2.00
84397;DHT22;74595;48.846;2.358;2024-03-23T16:01:41;31.40;2.40
84397;DHT22;74595;48.846;2.358;2024-03-23T16:04:09;31.10;3.00
84397;DHT22;74595;48.846;2.358;2024-03-23T16:06:34;31.10;3.10
84397;DHT22;74595;48.846;2.358;2024-03-23T16:09:00;30.30;2.70
84397;DHT22;74595;48.846;2.358;2024-03-23T16:11:26;30.30;2.80
84397;DHT22;74595;48.846;2.358;2024-03-23T16:13:51;30.40;2.90
84397;DHT22;74595;48.846;2.358;2024-03-23T16:16:17;30.20;3.40
84397;DHT22;74595;48.846;2.358;2024-03-23T16:18:45;30.30;3.10
84397;DHT22;74595;48.846;2.358;2024-03-23T16:21:11;30.20;3.70
84397;DHT22;74595;48.846;2.358;2024-03-23T16:23:37;28.40;3.40
84397;DHT22;74595;48.846;2.358;2024-03-23T16:26:03;28.40;3.20
84397;DHT22;74595;48.846;2.358;2024-03-23T16:28:33;27.70;3.80
84397;DHT22;74595;48.846;2.358;2024-03-23T16:31:01;27.10;4.40
84397;DHT22;74595;48.846;2.358;2024-03-23T16:33:27;26.10;4.90
84397;DHT22;74595;48.846;2.358;2024-03-23T16:36:06;25.20;5.40
84397;DHT22;74595;48.846;2.358;2024-03-23T16:38:33;24.30;6.70
84397;DHT22;74595;48.846;2.358;2024-03-23T16:41:06;23.00;7.00
84397;DHT22;74595;48.846;2.358;2024-03-23T16:43:36;22.20;7.20
84397;DHT22;74595;48.846;2.358;2024-03-23T16:46:09;22.30;7.30
84397;DHT22;74595;48.846;2.358;2024-03-23T16:48:37;21.90;7.60
84397;DHT22;74595;48.846;2.358;2024-03-23T16:51:04;21.70;8.50